Terminal Aerodrome Forecast
Issued by NWS

Home | Current Version | Previous Version | Text Only | Print | Product List | Glossary On
Versions: 1 2 3 4 5 6 7 8 9 10 11 12 13 14
022
FTUS45 KTFX 191143
TAFHVR
TAF
KHVR 191143Z 1912/2012 22009KT P6SM BKN140=

USA.gov is the U.S. government's official web portal to all federal, state and local government web resources and services.